Weather History for Danville, IL

Change the Weather History Date:

Wednesday, November 6, 2013

  Actual Average (KLAF) Record (KLAF)
Temperature  
Mean Temperature 46 °F 47 °F  
Max Temperature 57 °F 56 °F 77 °F (1975)
Min Temperature 34 °F 38 °F 21 °F (1973)
Degree Days  
Heating Degree Days 20 18  
Month to date heating degree days 102  
Since 1 July heating degree days 536  
Cooling Degree Days 0 0  
Month to date cooling degree days 0  
Year to date cooling degree days 982  
Moisture  
Dew Point 44 °F    
Average Humidity 90    
Maximum Humidity 95    
Minimum Humidity 62    
Precipitation  
Precipitation 0.26 in 0.09 in 1.16 in (1951)
Month to date precipitation 0.55  
Year to date precipitation 31.65  
Sea Level Pressure  
Sea Level Pressure 30.00 in    
Wind  
Wind Speed 17 mph (WSW)    
Max Wind Speed 23 mph    
Max Gust Speed 32 mph    
Visibility 9 miles    
Events Rain    
T = Trace of Precipitation, MM = Missing Value Source: NWS Daily Summary

Daily Weather History Graph

Daily Weather History Graph

Search for Another Location

Airport:

Trip Planner

Search our weather history database for the weather conditions in past years. The results will help you decide how hot, cold, wet, or windy it might be!

Date:

Astronomy

Nov. 06, 2013 Rise Set
Actual Time 6:25 AM CST 4:41 PM CST
Civil Twilight 5:57 AM CST 5:10 PM CST
Nautical Twilight 5:24 AM CST 5:42 PM CST
Astronomical Twilight 4:53 AM CST 6:14 PM CST
Moon 9:40 AM CST (11/6) 7:45 PM CST (11/6)
Length of Visible Light 11h 12m
Length of Day
10h 15m
Waxing Crescent, 14% of the Moon is Illuminated
Nov 6
Waxing Crescent
Nov 9
First Quarter
Nov 17
Full
Nov 25
Last Quarter
Dec 2
New

Hourly Weather History & Observations

Time (CST) Temp. Windchill Dew Point Humidity Pressure Visibility Wind Dir Wind Speed Gust Speed Precip Events Conditions
12:35 AM 57.2 °F - 44.2 °F 62% 30.01 in 10.0 mi South 20.7 mph 28.8 mph N/A   Overcast
12:55 AM 56.8 °F - 44.6 °F 64% 30.00 in 10.0 mi South 15.0 mph 20.7 mph N/A   Overcast
1:15 AM 57.2 °F - 45.3 °F 65% 30.00 in 10.0 mi South 18.4 mph 21.9 mph N/A   Overcast
1:35 AM 57.4 °F - 45.7 °F 65% 30.00 in 10.0 mi South 19.6 mph 26.5 mph N/A   Overcast
1:55 AM 55.2 °F - 47.3 °F 75% 29.99 in 10.0 mi South 21.9 mph 25.3 mph N/A Rain Light Rain
2:15 AM 55.0 °F - 48.2 °F 78% 29.98 in 10.0 mi South 20.7 mph 32.2 mph N/A Rain Rain
2:35 AM 53.8 °F - 48.7 °F 83% 29.98 in 10.0 mi South 15.0 mph 23.0 mph 0.02 in Rain Rain
2:55 AM 52.9 °F - 49.1 °F 87% 29.97 in 10.0 mi South 13.8 mph - 0.02 in Rain Light Rain
3:15 AM 52.7 °F - 49.1 °F 88% 29.96 in 10.0 mi South 16.1 mph 23.0 mph N/A Rain Light Rain
3:35 AM 52.5 °F - 49.5 °F 89% 29.95 in 10.0 mi South 15.0 mph 23.0 mph 0.01 in Rain Light Rain
3:55 AM 52.5 °F - 50.0 °F 91% 29.95 in 10.0 mi South 18.4 mph 23.0 mph 0.01 in   Overcast
4:15 AM 52.7 °F - 50.0 °F 91% 29.94 in 10.0 mi South 17.3 mph 23.0 mph 0.01 in Rain Rain
4:35 AM 52.3 °F - 50.0 °F 92% 29.94 in 10.0 mi South 18.4 mph 23.0 mph 0.03 in Rain Light Rain
4:55 AM 52.3 °F - 50.0 °F 92% 29.94 in 10.0 mi South 20.7 mph 26.5 mph 0.05 in Rain Rain
5:15 AM 52.3 °F - 49.8 °F 91% 29.94 in 10.0 mi South 17.3 mph 28.8 mph 0.01 in Rain Light Rain
5:35 AM 52.2 °F - 49.6 °F 91% 29.93 in 10.0 mi South 17.3 mph 26.5 mph 0.01 in Rain Rain
5:55 AM 52.0 °F - 49.3 °F 90% 29.93 in 10.0 mi South 19.6 mph 25.3 mph 0.02 in Rain Light Rain
6:15 AM 52.0 °F - 49.5 °F 91% 29.93 in 10.0 mi South 20.7 mph 27.6 mph N/A Rain Light Rain
6:35 AM 52.0 °F - 49.3 °F 90% 29.92 in 10.0 mi South 18.4 mph 26.5 mph N/A Rain Light Rain
6:55 AM 51.8 °F - 49.3 °F 91% 29.92 in 10.0 mi South 19.6 mph 27.6 mph 0.01 in Rain Light Rain
7:15 AM 51.8 °F - 49.1 °F 90% 29.93 in 10.0 mi South 19.6 mph 27.6 mph N/A Rain Light Rain
7:35 AM 52.0 °F - 49.5 °F 91% 29.93 in 10.0 mi South 20.7 mph 27.6 mph N/A   Light Drizzle
7:55 AM 51.8 °F - 49.5 °F 92% 29.92 in 10.0 mi South 20.7 mph 27.6 mph N/A Rain Light Rain
8:15 AM 51.8 °F - 49.6 °F 92% 29.92 in 7.0 mi South 19.6 mph 26.5 mph N/A Rain Light Rain
8:35 AM 51.3 °F - 49.5 °F 94% 29.92 in 4.0 mi South 18.4 mph 32.2 mph 0.05 in Rain Rain
8:55 AM 51.1 °F - 49.5 °F 94% 29.93 in 3.0 mi SSW 19.6 mph 28.8 mph 0.11 in Rain Rain
9:15 AM 51.1 °F - 49.6 °F 95% 29.93 in 5.0 mi SSW 20.7 mph 28.8 mph N/A Rain Light Rain
9:35 AM 51.1 °F - 49.6 °F 95% 29.93 in 7.0 mi SSW 21.9 mph 32.2 mph 0.01 in Rain Light Rain
9:55 AM 51.1 °F - 49.6 °F 95% 29.92 in 5.0 mi SSW 23.0 mph 31.1 mph 0.01 in Rain Light Rain
10:15 AM 51.1 °F - 49.5 °F 94% 29.90 in 7.0 mi SSW 23.0 mph 29.9 mph 0.01 in Rain Light Rain
10:35 AM 51.4 °F - 50.0 °F 95% 29.91 in 10.0 mi SSW 17.3 mph 26.5 mph 0.01 in Rain Light Rain
10:55 AM 52.2 °F - 50.4 °F 94% 29.89 in 10.0 mi SSW 20.7 mph 31.1 mph 0.01 in   Overcast
11:15 AM 52.7 °F - 50.9 °F 94% 29.89 in 10.0 mi SSW 19.6 mph 26.5 mph N/A Rain Light Rain
11:35 AM 52.7 °F - 50.5 °F 92% 29.90 in 10.0 mi SSW 19.6 mph 29.9 mph N/A   Overcast
11:55 AM 52.7 °F - 50.7 °F 93% 29.90 in 10.0 mi SW 20.7 mph 25.3 mph N/A   Overcast
12:15 PM 52.9 °F - 50.9 °F 93% 29.90 in 10.0 mi SSW 20.7 mph 27.6 mph N/A   Overcast
12:35 PM 53.2 °F - 50.9 °F 92% 29.90 in 10.0 mi SW 18.4 mph 25.3 mph N/A   Overcast
12:55 PM 52.7 °F - 50.5 °F 92% 29.91 in 5.0 mi SW 18.4 mph 26.5 mph N/A Rain Light Rain
1:15 PM 50.5 °F - 48.0 °F 91% 29.93 in 5.0 mi West 17.3 mph - N/A   Overcast
1:35 PM 49.3 °F - 47.3 °F 93% 29.93 in 4.0 mi West 17.3 mph 20.7 mph N/A Rain Light Rain
1:55 PM 47.3 °F - 45.1 °F 92% 29.95 in 1.8 mi West 23.0 mph 29.9 mph N/A   Overcast
2:15 PM 45.5 °F 38.9 °F 43.7 °F 93% 29.96 in 1.8 mi West 15.0 mph 20.7 mph N/A Rain Rain
2:35 PM 44.4 °F 36.9 °F 43.0 °F 95% 29.97 in 3.0 mi West 17.3 mph 25.3 mph 0.01 in Rain Light Rain
2:55 PM 43.7 °F 36.3 °F 42.4 °F 95% 29.98 in 2.5 mi West 16.1 mph 20.7 mph 0.01 in Rain Light Rain
3:15 PM 42.6 °F 35.2 °F 41.0 °F 94% 29.99 in 4.0 mi WNW 15.0 mph 25.3 mph N/A   Drizzle
3:35 PM 41.9 °F 34.6 °F 40.5 °F 95% 30.00 in 4.0 mi WNW 13.8 mph 21.9 mph N/A Rain Rain
3:55 PM 41.2 °F 34.1 °F 39.7 °F 95% 30.01 in 5.0 mi WNW 12.7 mph 19.6 mph 0.01 in Rain Light Rain
4:15 PM 40.6 °F 33.0 °F 39.2 °F 95% 30.03 in 10.0 mi WNW 13.8 mph - N/A   Overcast
4:35 PM 40.5 °F 32.5 °F 38.7 °F 93% 30.04 in 10.0 mi WNW 15.0 mph 20.7 mph N/A   Overcast
4:55 PM 40.5 °F 33.6 °F 38.3 °F 92% 30.04 in 10.0 mi WNW 11.5 mph 23.0 mph N/A   Overcast
5:15 PM 40.3 °F 33.9 °F 38.3 °F 93% 30.06 in 7.0 mi WNW 10.4 mph 19.6 mph N/A Rain Light Rain
5:35 PM 39.7 °F 32.3 °F 37.9 °F 93% 30.07 in 10.0 mi WNW 12.7 mph - N/A   Overcast
5:55 PM 39.7 °F 33.2 °F 37.8 °F 93% 30.08 in 10.0 mi WNW 10.4 mph - N/A   Overcast
6:15 PM 40.1 °F 33.6 °F 37.8 °F 91% 30.08 in 10.0 mi WNW 10.4 mph - N/A   Overcast
6:35 PM 40.1 °F 32.7 °F 37.4 °F 90% 30.09 in 10.0 mi WNW 12.7 mph - N/A   Overcast
6:55 PM 40.1 °F 32.7 °F 37.4 °F 90% 30.10 in 10.0 mi NW 12.7 mph 17.3 mph N/A   Overcast
7:15 PM 40.1 °F 33.6 °F 37.4 °F 90% 30.10 in 10.0 mi WNW 10.4 mph - N/A   Overcast
7:35 PM 40.1 °F 32.7 °F 37.4 °F 90% 30.11 in 10.0 mi NW 12.7 mph 18.4 mph N/A   Overcast
7:55 PM 40.1 °F 33.2 °F 36.5 °F 87% 30.11 in 10.0 mi NW 11.5 mph - N/A   Scattered Clouds
8:15 PM 39.2 °F 33.6 °F 36.0 °F 88% 30.11 in 10.0 mi WNW 8.1 mph - N/A   Clear
8:35 PM 38.7 °F 31.8 °F 35.6 °F 89% 30.11 in 10.0 mi NW 10.4 mph - N/A   Clear
8:55 PM 38.3 °F 33.2 °F 35.6 °F 90% 30.12 in 10.0 mi WNW 6.9 mph - N/A   Clear
9:15 PM 37.9 °F 33.5 °F 35.4 °F 91% 30.12 in 10.0 mi WNW 5.8 mph - N/A   Clear
9:35 PM 37.4 °F 32.1 °F 34.7 °F 90% 30.11 in 10.0 mi WNW 6.9 mph - N/A   Clear
9:55 PM 37.0 °F 30.4 °F 34.7 °F 91% 30.13 in 10.0 mi WNW 9.2 mph - N/A   Clear
10:15 PM 36.5 °F 31.0 °F 34.7 °F 93% 30.13 in 10.0 mi WNW 6.9 mph - N/A   Clear
10:35 PM 36.0 °F 29.6 °F 34.0 °F 93% 30.14 in 10.0 mi WNW 8.1 mph - N/A   Clear
10:55 PM 35.6 °F 28.0 °F 33.1 °F 91% 30.14 in 10.0 mi NW 10.4 mph - N/A   Clear
11:15 PM 35.1 °F 27.9 °F 32.4 °F 90% 30.14 in 10.0 mi NW 9.2 mph - N/A   Clear
11:35 PM 34.7 °F 26.9 °F 31.6 °F 89% 30.15 in 10.0 mi NW 10.4 mph - N/A   Clear
11:55 PM 34.2 °F 26.8 °F 30.9 °F 88% 30.16 in 10.0 mi NW 9.2 mph - N/A   Clear